Time;durP1;ratioP1;P1;durP2;ratioP2;P2;SDS_P1;SDS_P2;PMS_P1;PMS_P2;Temp;Humidity;BMP_temperature;BMP_pressure;BME280_temperature;BME280_humidity;BME280_pressure;Samples;Min_cycle;Max_cycle;Signal;HPM_P1;HPM_P2
2023/09/13 06:00:56;;;;;;;11.97;6.93;;;;;;;;;;5743970;23;20521;-69
2023/09/13 06:03:22;;;;;;;12.60;7.57;;;;;;;;;;4898651;29;20426;-69
2023/09/13 06:05:50;;;;;;;10.60;7.17;;;;;;;;;;4898886;29;20777;-69
2023/09/13 06:08:16;;;;;;;11.50;6.93;;;;;;;;;;4898651;29;20412;-70
2023/09/13 06:10:42;;;;;;;13.37;7.07;;;;;;;;;;4915177;29;20442;-69
2023/09/13 06:13:08;;;;;;;10.30;6.37;;;;;;;;;;4916895;29;20419;-69
2023/09/13 06:15:34;;;;;;;10.23;6.50;;;;;;;;;;4917397;29;20433;-68
2023/09/13 06:18:01;;;;;;;8.03;6.63;;;;;;;;;;4914214;29;20517;-69
2023/09/13 06:20:27;;;;;;;10.80;6.70;;;;;;;;;;4896689;29;20570;-68
2023/09/13 06:22:54;;;;;;;15.93;7.93;;;;;;;;;;4897686;29;20506;-68
2023/09/13 06:25:20;;;;;;;7.93;6.20;;;;;;;;;;4897232;29;20954;-68
2023/09/13 06:27:47;;;;;;;11.43;7.90;;;;;;;;;;4898604;29;20451;-67
2023/09/13 06:30:13;;;;;;;9.73;6.80;;;;;;;;;;4896696;29;20416;-68
2023/09/13 06:32:39;;;;;;;10.87;6.17;;;;;;;;;;4897713;29;20475;-68
2023/09/13 06:35:05;;;;;;;12.60;7.10;;;;;;;;;;4897875;29;20426;-68
2023/09/13 06:37:31;;;;;;;9.57;6.13;;;;;;;;;;4904018;29;20523;-68
2023/09/13 06:39:57;;;;;;;11.63;6.67;;;;;;;;;;4916248;29;20415;-67
2023/09/13 06:42:23;;;;;;;9.40;6.03;;;;;;;;;;4920007;29;20462;-68
2023/09/13 06:44:49;;;;;;;14.67;6.47;;;;;;;;;;4917471;29;20879;-67
2023/09/13 06:47:15;;;;;;;9.97;5.90;;;;;;;;;;4917731;29;20848;-68
2023/09/13 06:49:41;;;;;;;11.10;5.70;;;;;;;;;;4916990;29;20779;-67
2023/09/13 06:52:07;;;;;;;8.33;6.03;;;;;;;;;;4916175;29;20434;-67
2023/09/13 06:54:33;;;;;;;11.88;5.40;;;;;;;;;;4903111;29;20428;-66
2023/09/13 06:56:59;;;;;;;7.20;5.97;;;;;;;;;;4904166;29;20193;-67
2023/09/13 06:59:25;;;;;;;10.07;6.47;;;;;;;;;;4903997;29;20418;-67
2023/09/13 07:01:51;;;;;;;8.63;5.13;;;;;;;;;;4895782;29;20859;-66
2023/09/13 07:04:17;;;;;;;9.00;6.30;;;;;;;;;;4897059;29;20430;-67
2023/09/13 07:06:43;;;;;;;9.43;6.20;;;;;;;;;;4896455;29;20462;-66
2023/09/13 07:09:09;;;;;;;8.10;5.27;;;;;;;;;;4896210;29;20895;-67
2023/09/13 07:11:35;;;;;;;13.73;5.07;;;;;;;;;;4895490;29;20489;-67
2023/09/13 07:14:02;;;;;;;7.57;5.27;;;;;;;;;;4896030;29;20438;-66
2023/09/13 07:16:27;;;;;;;8.90;4.67;;;;;;;;;;4897146;29;20463;-67
2023/09/13 07:18:55;;;;;;;9.27;4.70;;;;;;;;;;4896907;29;20485;-67
2023/09/13 07:21:21;;;;;;;6.40;4.80;;;;;;;;;;4896490;29;20471;-66
2023/09/13 07:23:47;;;;;;;8.20;5.73;;;;;;;;;;4893793;29;20453;-66
2023/09/13 07:26:14;;;;;;;10.33;5.40;;;;;;;;;;4895388;29;20514;-67
2023/09/13 07:28:40;;;;;;;13.73;5.50;;;;;;;;;;4896873;29;20490;-67
2023/09/13 07:31:07;;;;;;;9.93;5.67;;;;;;;;;;4896473;29;20451;-67
2023/09/13 07:33:33;;;;;;;8.30;4.87;;;;;;;;;;4895534;29;20950;-68
2023/09/13 07:35:59;;;;;;;9.57;5.83;;;;;;;;;;4896193;29;20494;-69
2023/09/13 07:38:25;;;;;;;11.10;5.70;;;;;;;;;;4895007;29;20510;-68
2023/09/13 07:40:51;;;;;;;7.57;5.23;;;;;;;;;;4896022;29;20479;-67
2023/09/13 07:43:16;;;;;;;6.60;4.27;;;;;;;;;;4895140;29;20427;-68
2023/09/13 07:45:43;;;;;;;10.23;4.90;;;;;;;;;;4890762;29;20749;-67
2023/09/13 07:48:09;;;;;;;5.63;4.60;;;;;;;;;;4893120;29;20904;-68
2023/09/13 07:50:40;;;;;;;5.80;4.40;;;;;;;;;;4894354;29;20443;-68
2023/09/13 07:53:06;;;;;;;11.47;5.07;;;;;;;;;;4894658;29;20418;-66
2023/09/13 07:55:32;;;;;;;6.40;4.50;;;;;;;;;;4896101;29;20897;-66
2023/09/13 07:57:58;;;;;;;8.40;4.73;;;;;;;;;;4895959;29;21052;-67
2023/09/13 08:00:24;;;;;;;6.10;4.43;;;;;;;;;;4891337;29;20452;-67
2023/09/13 08:02:50;;;;;;;5.70;4.13;;;;;;;;;;4892071;29;20986;-68
2023/09/13 08:05:16;;;;;;;6.27;4.30;;;;;;;;;;4901812;29;20507;-67
2023/09/13 08:07:43;;;;;;;7.73;4.20;;;;;;;;;;4896387;29;20407;-67
2023/09/13 08:10:09;;;;;;;8.73;4.30;;;;;;;;;;4896285;29;20431;-67
2023/09/13 08:12:35;;;;;;;6.10;4.57;;;;;;;;;;4894648;29;20655;-67
2023/09/13 08:15:01;;;;;;;7.07;4.20;;;;;;;;;;4896393;29;20424;-67
2023/09/13 08:17:27;;;;;;;8.00;5.20;;;;;;;;;;4894832;29;20529;-67
2023/09/13 08:19:53;;;;;;;10.60;5.77;;;;;;;;;;4895975;29;20507;-68
2023/09/13 08:22:19;;;;;;;10.63;5.87;;;;;;;;;;4895804;29;20459;-67
2023/09/13 08:24:45;;;;;;;6.37;4.33;;;;;;;;;;4896056;29;20415;-67
2023/09/13 08:27:11;;;;;;;7.83;4.40;;;;;;;;;;4896556;29;20436;-68
2023/09/13 08:29:37;;;;;;;7.37;4.83;;;;;;;;;;4896067;29;20907;-69
2023/09/13 08:32:03;;;;;;;9.03;4.80;;;;;;;;;;4904380;29;20469;-67
2023/09/13 08:34:29;;;;;;;7.33;5.20;;;;;;;;;;4913502;29;20426;-66
2023/09/13 08:36:56;;;;;;;10.50;4.40;;;;;;;;;;4896093;29;20423;-69
2023/09/13 08:39:22;;;;;;;7.83;4.37;;;;;;;;;;4895781;29;20559;-68
2023/09/13 08:41:53;;;;;;;11.33;4.63;;;;;;;;;;4906649;29;20612;-66
2023/09/13 08:44:22;;;;;;;9.63;4.80;;;;;;;;;;4913782;29;20454;-66
2023/09/13 08:46:55;;;;;;;8.47;5.00;;;;;;;;;;4896189;29;20415;-67
2023/09/13 08:49:21;;;;;;;11.10;4.30;;;;;;;;;;4894735;29;20506;-67
2023/09/13 08:51:48;;;;;;;5.50;3.97;;;;;;;;;;4895475;29;20447;-67
2023/09/13 08:54:14;;;;;;;6.40;4.50;;;;;;;;;;4896079;29;20423;-67
2023/09/13 08:56:43;;;;;;;6.20;4.10;;;;;;;;;;4895683;29;20427;-67
2023/09/13 08:59:12;;;;;;;5.37;3.67;;;;;;;;;;4904387;29;20441;-67
2023/09/13 09:01:39;;;;;;;10.60;5.63;;;;;;;;;;4896970;29;20485;-67
2023/09/13 09:04:05;;;;;;;7.23;4.63;;;;;;;;;;4897453;29;20773;-67
2023/09/13 09:06:31;;;;;;;6.60;4.50;;;;;;;;;;4899103;29;20927;-67
2023/09/13 09:08:58;;;;;;;13.10;4.30;;;;;;;;;;4899758;29;20708;-67
2023/09/13 09:11:26;;;;;;;9.80;5.60;;;;;;;;;;4914803;29;20537;-67
2023/09/13 09:13:53;;;;;;;11.80;5.80;;;;;;;;;;4920274;29;20459;-66
2023/09/13 09:16:21;;;;;;;12.20;5.80;;;;;;;;;;4904664;29;20434;-66
2023/09/13 09:18:47;;;;;;;12.53;5.43;;;;;;;;;;4905127;29;20422;-66
2023/09/13 09:21:14;;;;;;;9.67;5.77;;;;;;;;;;4903707;29;20481;-67
2023/09/13 09:23:40;;;;;;;10.40;5.97;;;;;;;;;;4900380;29;20938;-67
2023/09/13 09:26:06;;;;;;;10.50;4.97;;;;;;;;;;4905227;29;20537;-67
2023/09/13 09:28:32;;;;;;;7.73;5.30;;;;;;;;;;4911627;29;20433;-68
2023/09/13 09:31:01;;;;;;;8.10;5.43;;;;;;;;;;4915384;29;20465;-67
2023/09/13 09:33:28;;;;;;;7.27;5.20;;;;;;;;;;4918082;29;20498;-67
2023/09/13 09:35:55;;;;;;;6.63;4.50;;;;;;;;;;4907208;29;20463;-66
2023/09/13 09:38:22;;;;;;;9.00;5.93;;;;;;;;;;4915386;29;20426;-65
2023/09/13 09:40:49;;;;;;;6.93;4.73;;;;;;;;;;4908139;29;20953;-65
2023/09/13 09:43:15;;;;;;;10.07;5.77;;;;;;;;;;4913144;29;20473;-67
2023/09/13 09:45:41;;;;;;;9.47;5.30;;;;;;;;;;4899123;29;20835;-67
2023/09/13 09:48:07;;;;;;;11.13;5.40;;;;;;;;;;4911879;29;20461;-69
2023/09/13 09:50:33;;;;;;;8.77;5.07;;;;;;;;;;4912154;29;20779;-76
2023/09/13 09:52:59;;;;;;;8.13;5.10;;;;;;;;;;4898942;29;20471;-67
2023/09/13 09:55:28;;;;;;;7.57;5.07;;;;;;;;;;4898133;29;20422;-68
2023/09/13 09:57:54;;;;;;;6.90;4.87;;;;;;;;;;4898708;29;20424;-67
2023/09/13 10:00:22;;;;;;;9.23;6.33;;;;;;;;;;4899737;29;20416;-73
2023/09/13 10:02:48;;;;;;;7.50;5.43;;;;;;;;;;4898472;29;20478;-73
2023/09/13 10:05:17;;;;;;;9.20;5.63;;;;;;;;;;4896202;29;20546;-74
2023/09/13 10:07:50;;;;;;;7.40;5.10;;;;;;;;;;4898438;29;20493;-74
2023/09/13 10:10:37;;;;;;;9.17;5.43;;;;;;;;;;4897801;29;20946;-73
2023/09/13 10:13:06;;;;;;;7.90;5.47;;;;;;;;;;4898288;29;20423;-73
2023/09/13 10:15:32;;;;;;;6.30;4.53;;;;;;;;;;4896712;29;20491;-73
2023/09/13 10:18:01;;;;;;;7.97;5.33;;;;;;;;;;4899084;29;20419;-72
2023/09/13 10:20:28;;;;;;;10.97;6.07;;;;;;;;;;4897739;29;20503;-73
2023/09/13 10:22:58;;;;;;;8.03;4.77;;;;;;;;;;4896588;29;20471;-74
2023/09/13 10:25:24;;;;;;;7.50;5.10;;;;;;;;;;4898000;29;20763;-72
2023/09/13 10:27:52;;;;;;;8.13;4.50;;;;;;;;;;4898206;29;20439;-71
2023/09/13 10:30:23;;;;;;;8.47;5.00;;;;;;;;;;4897087;29;20971;-72
2023/09/13 10:32:51;;;;;;;7.23;5.37;;;;;;;;;;4896324;29;20415;-73
2023/09/13 10:35:19;;;;;;;9.97;5.30;;;;;;;;;;4897799;29;20428;-72
2023/09/13 10:38:03;;;;;;;7.20;5.23;;;;;;;;;;4898156;29;20483;-72
2023/09/13 10:40:34;;;;;;;7.97;4.87;;;;;;;;;;4897770;29;20443;-72
2023/09/13 10:43:01;;;;;;;8.63;5.07;;;;;;;;;;4896688;29;20443;-73
2023/09/13 10:45:27;;;;;;;9.67;5.73;;;;;;;;;;4898485;29;20443;-72
2023/09/13 10:47:53;;;;;;;10.80;7.83;;;;;;;;;;4898327;29;20499;-72
2023/09/13 10:50:20;;;;;;;11.77;7.00;;;;;;;;;;4897602;29;20414;-72
2023/09/13 10:52:46;;;;;;;8.40;5.50;;;;;;;;;;4896117;29;20963;-72
2023/09/13 10:55:13;;;;;;;10.57;6.30;;;;;;;;;;4896899;29;20748;-72
2023/09/13 10:57:42;;;;;;;8.63;5.13;;;;;;;;;;4897288;29;20423;-73
2023/09/13 11:00:12;;;;;;;8.20;4.60;;;;;;;;;;4898066;29;20426;-72
2023/09/13 11:02:39;;;;;;;6.60;4.83;;;;;;;;;;4897313;29;20510;-72
2023/09/13 11:05:05;;;;;;;10.00;5.30;;;;;;;;;;4897880;29;20419;-72
2023/09/13 11:07:38;;;;;;;8.47;5.50;;;;;;;;;;4897886;29;20419;-72
2023/09/13 11:10:04;;;;;;;7.87;4.70;;;;;;;;;;4898460;29;20455;-71
2023/09/13 11:12:35;;;;;;;11.67;4.93;;;;;;;;;;4897114;29;20475;-72
2023/09/13 11:15:11;;;;;;;7.30;4.87;;;;;;;;;;4897789;29;20422;-71
2023/09/13 11:17:39;;;;;;;6.90;4.77;;;;;;;;;;4897618;29;20430;-72
2023/09/13 11:20:21;;;;;;;7.90;4.90;;;;;;;;;;4897746;29;20447;-73
2023/09/13 11:23:01;;;;;;;8.13;5.40;;;;;;;;;;4897388;29;20474;-71
2023/09/13 11:25:31;;;;;;;8.27;5.60;;;;;;;;;;4897415;29;20411;-72
2023/09/13 11:27:57;;;;;;;9.67;5.03;;;;;;;;;;4903114;29;20999;-72
2023/09/13 11:30:43;;;;;;;5.70;4.57;;;;;;;;;;4916053;29;20510;-74
2023/09/13 11:33:09;;;;;;;8.30;5.20;;;;;;;;;;4897208;29;20435;-74
2023/09/13 11:35:38;;;;;;;8.87;5.20;;;;;;;;;;4897207;29;20420;-71
2023/09/13 11:38:04;;;;;;;10.73;5.77;;;;;;;;;;4897276;29;20903;-73
2023/09/13 11:40:30;;;;;;;7.00;4.77;;;;;;;;;;4897120;29;20447;-73
2023/09/13 11:42:56;;;;;;;9.47;5.03;;;;;;;;;;4915025;29;20477;-70
2023/09/13 11:45:22;;;;;;;8.70;5.33;;;;;;;;;;4914523;29;20415;-72
2023/09/13 11:47:50;;;;;;;9.23;4.80;;;;;;;;;;4898300;29;20479;-71
2023/09/13 11:50:17;;;;;;;6.67;4.97;;;;;;;;;;4896995;29;20415;-72
2023/09/13 11:53:01;;;;;;;8.83;5.27;;;;;;;;;;4896313;29;20423;-73
2023/09/13 11:55:27;;;;;;;10.97;5.17;;;;;;;;;;4897216;29;20899;-72
2023/09/13 11:57:53;;;;;;;6.63;4.83;;;;;;;;;;4906912;29;20438;-71
2023/09/13 12:00:19;;;;;;;8.90;5.77;;;;;;;;;;4915090;29;20426;-72
2023/09/13 12:02:46;;;;;;;6.47;5.20;;;;;;;;;;4912442;29;20481;-71
2023/09/13 12:05:12;;;;;;;7.80;5.77;;;;;;;;;;4900374;29;20825;-71
2023/09/13 12:07:38;;;;;;;10.77;5.43;;;;;;;;;;4901149;29;20434;-71
2023/09/13 12:10:05;;;;;;;10.27;5.90;;;;;;;;;;4915211;29;20425;-71
2023/09/13 12:12:41;;;;;;;7.50;5.70;;;;;;;;;;4901184;29;20799;-71
2023/09/13 12:15:13;;;;;;;9.80;5.33;;;;;;;;;;4918992;23;20541;-74
2023/09/13 12:17:39;;;;;;;14.23;5.73;;;;;;;;;;4897019;29;20423;-73
2023/09/13 12:20:05;;;;;;;7.70;5.70;;;;;;;;;;4896782;29;20411;-72
2023/09/13 12:22:37;;;;;;;12.90;5.13;;;;;;;;;;4895928;29;20467;-75
2023/09/13 12:25:05;;;;;;;7.80;5.43;;;;;;;;;;4897061;29;20427;-72
2023/09/13 12:27:31;;;;;;;6.03;4.70;;;;;;;;;;4896465;29;20523;-72
2023/09/13 12:29:57;;;;;;;12.20;5.90;;;;;;;;;;4896715;29;20954;-74
2023/09/13 12:32:23;;;;;;;11.10;5.10;;;;;;;;;;4896064;29;20430;-73
2023/09/13 12:34:49;;;;;;;8.90;4.70;;;;;;;;;;4896483;29;20478;-72
2023/09/13 12:37:15;;;;;;;5.77;4.80;;;;;;;;;;4898802;29;20431;-72
2023/09/13 12:39:42;;;;;;;6.23;5.13;;;;;;;;;;4898685;29;20436;-72
2023/09/13 12:42:08;;;;;;;9.30;5.30;;;;;;;;;;4901012;29;20962;-71
2023/09/13 12:44:35;;;;;;;4.87;4.40;;;;;;;;;;4900903;29;20834;-71
2023/09/13 12:47:03;;;;;;;8.73;4.83;;;;;;;;;;4899666;29;20490;-71
2023/09/13 12:49:30;;;;;;;9.40;5.00;;;;;;;;;;4908756;29;20498;-72
2023/09/13 12:51:55;;;;;;;6.80;4.70;;;;;;;;;;4901343;29;20571;-71
2023/09/13 12:54:21;;;;;;;5.63;4.40;;;;;;;;;;4899704;29;20518;-72
2023/09/13 12:56:47;;;;;;;8.93;4.77;;;;;;;;;;4897755;29;20435;-73
2023/09/13 12:59:13;;;;;;;9.03;5.10;;;;;;;;;;4899950;29;20930;-72
2023/09/13 13:01:40;;;;;;;6.53;4.87;;;;;;;;;;4898628;29;20498;-72
2023/09/13 13:04:07;;;;;;;6.30;4.60;;;;;;;;;;4918187;29;20434;-71
2023/09/13 13:06:37;;;;;;;8.00;5.30;;;;;;;;;;4915040;29;20923;-72
2023/09/13 13:09:06;;;;;;;9.67;4.60;;;;;;;;;;4905662;29;20458;-73
2023/09/13 13:11:37;;;;;;;6.63;4.17;;;;;;;;;;4915373;29;20434;-71
2023/09/13 13:14:03;;;;;;;8.10;3.90;;;;;;;;;;4913667;29;20430;-73
2023/09/13 13:16:29;;;;;;;8.87;4.43;;;;;;;;;;4916172;29;20529;-72
2023/09/13 13:18:56;;;;;;;4.53;3.83;;;;;;;;;;4899731;29;20422;-72
2023/09/13 13:21:23;;;;;;;5.03;4.10;;;;;;;;;;4899381;29;20501;-71
2023/09/13 13:23:50;;;;;;;4.00;3.60;;;;;;;;;;4899437;29;20415;-73
2023/09/13 13:26:18;;;;;;;6.07;3.80;;;;;;;;;;4915424;29;20517;-73
2023/09/13 13:28:44;;;;;;;7.77;3.83;;;;;;;;;;4907444;29;20438;-74
2023/09/13 13:31:10;;;;;;;5.20;4.17;;;;;;;;;;4918419;29;20434;-72
2023/09/13 13:33:37;;;;;;;7.43;4.57;;;;;;;;;;4900284;29;20434;-72
2023/09/13 13:36:06;;;;;;;9.90;4.70;;;;;;;;;;4899925;29;20442;-72
2023/09/13 13:38:35;;;;;;;8.40;4.60;;;;;;;;;;4899411;29;20427;-72
2023/09/13 13:41:05;;;;;;;7.83;5.50;;;;;;;;;;4899492;29;20553;-70
2023/09/13 13:43:31;;;;;;;7.83;4.80;;;;;;;;;;4899133;29;20491;-71
2023/09/13 13:45:58;;;;;;;6.60;4.20;;;;;;;;;;4899441;29;20962;-71
2023/09/13 13:48:25;;;;;;;5.60;4.20;;;;;;;;;;4901796;29;20474;-72
2023/09/13 13:50:51;;;;;;;7.17;3.63;;;;;;;;;;4899008;29;20419;-72
2023/09/13 13:53:19;;;;;;;6.07;4.40;;;;;;;;;;4899639;29;20828;-72
2023/09/13 13:55:45;;;;;;;7.00;5.00;;;;;;;;;;4900382;29;20514;-72
2023/09/13 13:58:11;;;;;;;5.50;3.80;;;;;;;;;;4908218;29;20457;-72
2023/09/13 14:00:37;;;;;;;7.73;4.07;;;;;;;;;;4918464;29;20414;-72
2023/09/13 14:03:03;;;;;;;9.90;4.90;;;;;;;;;;4907046;29;20489;-71
2023/09/13 14:05:31;;;;;;;5.80;4.50;;;;;;;;;;4916876;29;20485;-73
2023/09/13 14:07:58;;;;;;;11.30;4.83;;;;;;;;;;4900169;29;20436;-70
2023/09/13 14:10:23;;;;;;;6.47;4.23;;;;;;;;;;4900502;29;20415;-73
2023/09/13 14:12:54;;;;;;;6.70;4.30;;;;;;;;;;4899413;29;20945;-73
2023/09/13 14:15:20;;;;;;;6.10;4.20;;;;;;;;;;4902827;29;20451;-71
2023/09/13 14:17:46;;;;;;;5.57;4.50;;;;;;;;;;4907459;29;20427;-72
2023/09/13 14:20:14;;;;;;;8.13;5.00;;;;;;;;;;4908147;29;20857;-72
2023/09/13 14:22:40;;;;;;;7.20;4.63;;;;;;;;;;4907216;29;20495;-70
2023/09/13 14:25:06;;;;;;;7.27;4.60;;;;;;;;;;4905595;29;20431;-69
2023/09/13 14:27:32;;;;;;;9.40;5.13;;;;;;;;;;4908408;29;20411;-71
2023/09/13 14:29:58;;;;;;;9.13;5.50;;;;;;;;;;4906127;29;20417;-70
2023/09/13 14:32:26;;;;;;;10.63;5.23;;;;;;;;;;4902170;29;20495;-71
2023/09/13 14:34:52;;;;;;;7.83;4.93;;;;;;;;;;4917251;29;20457;-71
2023/09/13 14:37:18;;;;;;;11.63;5.90;;;;;;;;;;4921785;29;20426;-70
2023/09/13 14:39:45;;;;;;;11.87;5.70;;;;;;;;;;4918196;29;20427;-71
2023/09/13 14:42:10;;;;;;;7.47;5.30;;;;;;;;;;4915492;29;20831;-70
2023/09/13 14:44:39;;;;;;;13.90;6.50;;;;;;;;;;4900423;29;20479;-70
2023/09/13 14:47:05;;;;;;;11.50;5.30;;;;;;;;;;4899169;29;20428;-71
2023/09/13 14:49:31;;;;;;;12.17;5.90;;;;;;;;;;4898589;29;20433;-71
2023/09/13 14:51:57;;;;;;;9.50;5.83;;;;;;;;;;4893430;29;20444;-73
2023/09/13 14:54:23;;;;;;;8.30;5.37;;;;;;;;;;4897637;29;20478;-71
2023/09/13 14:56:49;;;;;;;10.63;6.43;;;;;;;;;;4910618;29;20950;-71
2023/09/13 14:59:17;;;;;;;10.77;5.90;;;;;;;;;;4896965;29;20627;-71
2023/09/13 15:01:43;;;;;;;12.30;6.30;;;;;;;;;;4904018;29;20797;-72
2023/09/13 15:04:10;;;;;;;9.53;5.73;;;;;;;;;;4898612;29;20419;-73
2023/09/13 15:06:39;;;;;;;7.60;5.80;;;;;;;;;;4898048;29;20502;-72
2023/09/13 15:09:06;;;;;;;8.23;6.10;;;;;;;;;;4910128;29;20434;-73
2023/09/13 15:11:32;;;;;;;11.27;6.33;;;;;;;;;;4916510;29;20422;-72
2023/09/13 15:13:58;;;;;;;7.50;5.10;;;;;;;;;;4900573;29;20433;-72
2023/09/13 15:16:24;;;;;;;9.43;5.97;;;;;;;;;;4903387;29;20538;-72
2023/09/13 15:18:50;;;;;;;8.37;5.53;;;;;;;;;;4901984;29;20556;-72
2023/09/13 15:21:16;;;;;;;7.97;5.77;;;;;;;;;;4897716;29;20518;-72
2023/09/13 15:23:43;;;;;;;8.63;5.60;;;;;;;;;;4897626;29;20967;-72
2023/09/13 15:26:09;;;;;;;8.40;5.53;;;;;;;;;;4897566;29;21137;-72
2023/09/13 15:28:35;;;;;;;8.30;5.10;;;;;;;;;;4901014;29;20518;-74
2023/09/13 15:31:01;;;;;;;9.30;6.30;;;;;;;;;;4903182;29;20465;-70
2023/09/13 15:33:27;;;;;;;8.60;5.50;;;;;;;;;;4905330;29;20428;-71
2023/09/13 15:35:53;;;;;;;7.20;5.10;;;;;;;;;;4903452;29;20804;-72
2023/09/13 15:38:19;;;;;;;8.20;5.27;;;;;;;;;;4906720;29;20426;-72
2023/09/13 15:40:46;;;;;;;7.70;5.63;;;;;;;;;;4897318;29;20423;-72
2023/09/13 15:43:12;;;;;;;13.03;6.57;;;;;;;;;;4896928;29;20493;-72
2023/09/13 15:45:38;;;;;;;8.57;5.50;;;;;;;;;;4896910;29;20439;-73
2023/09/13 15:48:04;;;;;;;9.27;6.10;;;;;;;;;;4897394;29;20427;-73
2023/09/13 15:50:30;;;;;;;12.10;6.27;;;;;;;;;;4889379;29;20482;-71
2023/09/13 15:52:56;;;;;;;16.00;6.10;;;;;;;;;;4897356;29;20888;-72
2023/09/13 15:55:23;;;;;;;8.90;6.37;;;;;;;;;;4895297;29;20458;-72
2023/09/13 15:57:49;;;;;;;11.67;6.00;;;;;;;;;;4896942;29;20431;-73
2023/09/13 16:00:15;;;;;;;10.37;6.47;;;;;;;;;;4895570;29;20423;-72
2023/09/13 16:02:41;;;;;;;8.63;5.53;;;;;;;;;;4896249;29;20475;-72
2023/09/13 16:05:08;;;;;;;11.47;5.87;;;;;;;;;;4889119;29;20511;-72
2023/09/13 16:07:34;;;;;;;8.57;5.63;;;;;;;;;;4888940;29;20423;-71
2023/09/13 16:10:01;;;;;;;7.73;5.70;;;;;;;;;;4896767;29;20419;-71
2023/09/13 16:12:27;;;;;;;8.37;5.70;;;;;;;;;;4896109;29;20427;-71
2023/09/13 16:14:53;;;;;;;10.70;6.17;;;;;;;;;;4896411;29;20469;-72
2023/09/13 16:17:19;;;;;;;7.77;5.80;;;;;;;;;;4896779;29;20427;-72
2023/09/13 16:19:45;;;;;;;6.57;4.87;;;;;;;;;;4891955;29;20507;-73
2023/09/13 16:22:11;;;;;;;9.53;5.07;;;;;;;;;;4891690;29;20479;-72
2023/09/13 16:24:37;;;;;;;9.07;6.37;;;;;;;;;;4896233;29;20459;-72
2023/09/13 16:27:03;;;;;;;9.07;6.10;;;;;;;;;;4896447;29;20474;-73
2023/09/13 16:29:29;;;;;;;9.77;6.60;;;;;;;;;;4896483;29;20427;-73
2023/09/13 16:31:56;;;;;;;9.07;6.00;;;;;;;;;;4890397;29;20452;-71
2023/09/13 16:34:22;;;;;;;8.30;6.10;;;;;;;;;;4894690;29;20427;-73
2023/09/13 16:36:48;;;;;;;8.70;6.00;;;;;;;;;;4896833;29;20423;-72
2023/09/13 16:39:15;;;;;;;13.70;6.30;;;;;;;;;;4893679;29;20423;-72
2023/09/13 16:41:43;;;;;;;8.63;6.37;;;;;;;;;;4896481;29;20554;-72
2023/09/13 16:44:09;;;;;;;10.90;5.70;;;;;;;;;;4896402;29;20419;-72
2023/09/13 16:46:34;;;;;;;12.37;6.43;;;;;;;;;;4896478;29;20507;-72
2023/09/13 16:49:00;;;;;;;8.53;6.67;;;;;;;;;;4896242;29;20415;-73
2023/09/13 16:51:28;;;;;;;17.80;6.93;;;;;;;;;;4895111;29;20480;-73
2023/09/13 16:53:54;;;;;;;11.63;6.07;;;;;;;;;;4896445;29;20419;-71
2023/09/13 16:56:19;;;;;;;9.40;7.23;;;;;;;;;;4902763;29;20450;-72
2023/09/13 16:58:45;;;;;;;8.57;5.90;;;;;;;;;;4913879;29;20990;-73
2023/09/13 17:01:11;;;;;;;13.63;7.10;;;;;;;;;;4915515;29;20966;-73
2023/09/13 17:03:39;;;;;;;8.90;7.00;;;;;;;;;;4915078;29;20415;-74
2023/09/13 17:06:05;;;;;;;9.93;6.60;;;;;;;;;;4915235;29;20918;-72
2023/09/13 17:08:33;;;;;;;9.30;6.30;;;;;;;;;;4896813;29;20443;-72
2023/09/13 17:10:58;;;;;;;12.93;7.63;;;;;;;;;;4898428;29;20813;-71
2023/09/13 17:13:25;;;;;;;10.73;6.63;;;;;;;;;;4897317;29;20943;-71
2023/09/13 17:15:51;;;;;;;7.13;5.90;;;;;;;;;;4896118;29;20467;-71
2023/09/13 17:18:17;;;;;;;10.40;6.50;;;;;;;;;;4896517;29;20459;-72
2023/09/13 17:20:43;;;;;;;8.33;6.10;;;;;;;;;;4900601;29;20426;-72
2023/09/13 17:23:09;;;;;;;10.53;6.93;;;;;;;;;;4900681;29;20906;-75
2023/09/13 17:25:35;;;;;;;9.77;6.10;;;;;;;;;;4903021;29;20466;-75
2023/09/13 17:28:02;;;;;;;8.80;5.87;;;;;;;;;;4897385;29;20439;-75
2023/09/13 17:30:29;;;;;;;11.10;6.13;;;;;;;;;;4898138;29;20479;-74
2023/09/13 17:32:56;;;;;;;8.70;6.47;;;;;;;;;;4899863;29;20424;-75
2023/09/13 17:35:22;;;;;;;9.80;6.10;;;;;;;;;;4899540;29;20650;-74
2023/09/13 17:37:48;;;;;;;11.77;5.77;;;;;;;;;;4899527;29;20431;-73
2023/09/13 17:40:14;;;;;;;9.90;7.40;;;;;;;;;;4896970;29;20438;-74
2023/09/13 17:42:40;;;;;;;8.23;6.50;;;;;;;;;;4899182;29;20471;-74
2023/09/13 17:45:06;;;;;;;8.83;6.50;;;;;;;;;;4899087;29;20943;-73
2023/09/13 17:47:32;;;;;;;15.37;9.97;;;;;;;;;;4898907;29;20745;-74
2023/09/13 17:49:58;;;;;;;13.60;8.50;;;;;;;;;;4899594;29;20427;-74
2023/09/13 17:52:25;;;;;;;7.80;5.87;;;;;;;;;;4898938;29;20459;-72
2023/09/13 17:54:51;;;;;;;12.93;6.40;;;;;;;;;;4899212;29;20447;-73
2023/09/13 17:57:17;;;;;;;9.93;6.90;;;;;;;;;;4898901;29;20439;-73
2023/09/13 17:59:43;;;;;;;9.40;6.53;;;;;;;;;;4895223;29;20837;-73
2023/09/13 18:02:11;;;;;;;9.20;5.53;;;;;;;;;;4895030;29;20596;-74
2023/09/13 18:04:37;;;;;;;9.17;6.53;;;;;;;;;;4898670;29;20861;-74
2023/09/13 18:07:03;;;;;;;11.57;6.70;;;;;;;;;;4898999;29;20420;-75
2023/09/13 18:09:29;;;;;;;11.53;7.03;;;;;;;;;;4898520;29;20438;-75
2023/09/13 18:11:55;;;;;;;11.77;7.43;;;;;;;;;;4898212;29;20819;-74
2023/09/13 18:14:21;;;;;;;8.90;6.60;;;;;;;;;;4896032;29;20436;-75
2023/09/13 18:16:47;;;;;;;7.83;5.60;;;;;;;;;;4899124;29;20439;-73
2023/09/13 18:19:13;;;;;;;8.50;6.70;;;;;;;;;;4898875;29;20424;-75
2023/09/13 18:21:40;;;;;;;8.50;5.63;;;;;;;;;;4898348;29;20478;-74
2023/09/13 18:24:07;;;;;;;8.60;6.03;;;;;;;;;;4898664;29;20411;-73
2023/09/13 18:26:33;;;;;;;7.37;5.93;;;;;;;;;;4898849;29;20949;-73
2023/09/13 18:28:59;;;;;;;10.73;7.13;;;;;;;;;;4898190;29;20432;-74
2023/09/13 18:31:25;;;;;;;11.00;6.77;;;;;;;;;;4898678;29;20915;-73
2023/09/13 18:33:52;;;;;;;8.03;6.07;;;;;;;;;;4898936;29;20434;-74
2023/09/13 18:36:18;;;;;;;10.53;6.47;;;;;;;;;;4898446;29;20440;-74
2023/09/13 18:38:44;;;;;;;11.10;6.37;;;;;;;;;;4898627;29;20510;-74
2023/09/13 18:41:10;;;;;;;12.60;6.20;;;;;;;;;;4898366;29;20451;-75
2023/09/13 18:43:36;;;;;;;13.77;6.63;;;;;;;;;;4898194;29;20479;-75
2023/09/13 18:46:08;;;;;;;9.77;6.30;;;;;;;;;;4898292;29;20447;-75
2023/09/13 18:48:33;;;;;;;11.60;7.80;;;;;;;;;;4898404;29;20518;-75
2023/09/13 18:51:00;;;;;;;11.03;7.50;;;;;;;;;;4898666;29;20458;-75
2023/09/13 18:53:27;;;;;;;14.90;6.70;;;;;;;;;;4898341;29;20768;-74
2023/09/13 18:55:54;;;;;;;11.83;6.40;;;;;;;;;;4897902;29;20446;-74
2023/09/13 18:58:21;;;;;;;12.30;7.30;;;;;;;;;;4899066;29;20431;-75
2023/09/13 19:00:47;;;;;;;21.87;10.80;;;;;;;;;;4891198;29;20415;-76
2023/09/13 19:03:13;;;;;;;13.57;7.20;;;;;;;;;;4898767;29;20590;-75
2023/09/13 19:05:39;;;;;;;12.27;7.50;;;;;;;;;;4898246;29;20951;-75
2023/09/13 19:08:06;;;;;;;8.77;6.30;;;;;;;;;;4897956;29;20416;-73
2023/09/13 19:10:32;;;;;;;11.80;7.03;;;;;;;;;;4898034;29;20795;-73
2023/09/13 19:12:57;;;;;;;9.90;6.63;;;;;;;;;;4897885;29;20515;-75
2023/09/13 19:15:23;;;;;;;11.07;7.20;;;;;;;;;;4897942;29;20877;-75
2023/09/13 19:17:50;;;;;;;12.87;7.50;;;;;;;;;;4894778;29;20528;-74
2023/09/13 19:20:16;;;;;;;9.33;6.57;;;;;;;;;;4897128;29;20507;-75
2023/09/13 19:22:42;;;;;;;11.83;6.57;;;;;;;;;;4897727;29;20573;-74
2023/09/13 19:25:09;;;;;;;11.33;6.63;;;;;;;;;;4897917;29;20519;-75
2023/09/13 19:27:35;;;;;;;10.37;6.70;;;;;;;;;;4892720;29;20440;-74
2023/09/13 19:30:01;;;;;;;14.50;7.03;;;;;;;;;;4898020;29;20423;-74
2023/09/13 19:32:26;;;;;;;10.83;6.73;;;;;;;;;;4897128;29;20458;-75
2023/09/13 19:34:52;;;;;;;10.20;6.70;;;;;;;;;;4897211;29;20861;-76
2023/09/13 19:37:18;;;;;;;10.93;6.73;;;;;;;;;;4897455;29;20423;-73
2023/09/13 19:39:44;;;;;;;8.10;6.20;;;;;;;;;;4896058;29;20432;-74
2023/09/13 19:42:10;;;;;;;12.63;7.03;;;;;;;;;;4897001;29;20466;-73
2023/09/13 19:44:36;;;;;;;10.80;7.30;;;;;;;;;;4897105;29;20911;-72
2023/09/13 19:47:03;;;;;;;13.13;7.73;;;;;;;;;;4896886;29;20427;-73
2023/09/13 19:49:32;;;;;;;11.47;7.60;;;;;;;;;;4897094;29;20424;-74
2023/09/13 19:51:58;;;;;;;10.30;6.90;;;;;;;;;;4895615;29;20805;-73
2023/09/13 19:54:24;;;;;;;9.90;6.80;;;;;;;;;;4894492;29;20439;-73
2023/09/13 19:56:50;;;;;;;10.27;7.20;;;;;;;;;;4895661;29;20431;-72
2023/09/13 19:59:16;;;;;;;14.00;7.60;;;;;;;;;;4900183;29;20434;-73
2023/09/13 20:01:42;;;;;;;11.30;7.57;;;;;;;;;;4897890;29;20463;-73
2023/09/13 20:04:08;;;;;;;13.30;6.67;;;;;;;;;;4896754;29;20411;-74
2023/09/13 20:06:36;;;;;;;11.73;7.27;;;;;;;;;;4897044;29;20455;-73
2023/09/13 20:09:02;;;;;;;15.40;6.90;;;;;;;;;;4896704;29;20419;-73
2023/09/13 20:11:28;;;;;;;14.63;7.40;;;;;;;;;;4896429;29;20482;-74
2023/09/13 20:13:54;;;;;;;9.97;7.53;;;;;;;;;;4895714;29;20424;-74
2023/09/13 20:16:20;;;;;;;10.30;6.90;;;;;;;;;;4895918;29;20503;-74
2023/09/13 20:18:47;;;;;;;9.47;7.20;;;;;;;;;;4896890;29;20431;-74
2023/09/13 20:21:15;;;;;;;10.43;7.70;;;;;;;;;;4896350;29;20423;-74
2023/09/13 20:23:41;;;;;;;13.37;7.27;;;;;;;;;;4895900;29;20422;-74
2023/09/13 20:26:08;;;;;;;10.50;6.83;;;;;;;;;;4895450;29;20436;-74
2023/09/13 20:28:34;;;;;;;10.97;7.13;;;;;;;;;;4896371;29;20938;-74
2023/09/13 20:31:00;;;;;;;13.20;7.67;;;;;;;;;;4897204;29;20422;-74
2023/09/13 20:33:27;;;;;;;11.03;6.40;;;;;;;;;;4907730;29;20783;-75
2023/09/13 20:35:52;;;;;;;12.37;7.20;;;;;;;;;;4907246;29;20855;-75